Portada
Imágenes satélite Pronóstico 10 díasClimaPredicción Marítima Ciclones Rayo AeropuertosFAQ Noticias Acerca
El tiempo : Europa África América del Norte América del Sur Asia Australia-Oceanía Otros
Idiomas Contacto

Humberside, Inglaterra

latitud: 53-35N, longitud: 000-21W, altitud: 31 m


METAR: EGNJ 261050Z 31006KT 270V350 9999 FEW030 11/00 Q1009
TAF: EGNJ 260759Z 2609/2618 35005KT CAVOK

Hora: 12:28 (11:28 UTC)

Observación

El informe se hizo hace 38 minutos, a las 10:50 UTC
Viento 6 kt del noroeste, variando entre oeste y norte
Temperatura 11°C
Humedad 47%
Presión 1009 hPa
Visibilidad 10 km o más
Escasas nubes a una altura de 3000 ft

Cambiar las unidades

Pronóstico

El informe se hizo hace 3 horas y 29 minutos, a las 07:59 UTC
Pronóstico válido del 26 a las 09 UTC al 26 a las 18 UTC
Viento 5 kt del norte
Visibilidad 10 km o más
sin nubes por debajo de 1500 m y sin presencia de cumulonimbus.
La información que se ofrece en estas páginas está sujeta a una cláusula de exención de responsabilidad
El tiempo : Europa África América del Norte América del Sur Asia Australia-Oceanía Otros
Imágenes satélite Pronóstico 10 díasClimaPredicción Marítima Ciclones Rayo AeropuertosFAQ Idiomas Contacto Noticias Acerca